Koyo — JD2279 — position and weather

sailwx.info

Track history (hours):
 
Tides and Currents Weather Stations Pressure Air Temp Water Temp Dewpoint Dewpoint Depression Visibility Wind Speed Wind Dir Waves Ship Positions

Koyo

Last reported at 2014-Dec-22 07:18 UTC. Time now 2014-Dec-23 04:24 UTC.
Position N 34°34' E 134°47'.

Length 80 m; draft 3.6 m.

Type: Cargo ship. MMSI: 431301812.

Date/timePositionNaut miles runAvg speedWind from/ knotsBaromVisibWave heightAir tempDewpointWater temp
2014-Dec-22 07:18N 34°34' E 134°47'810.5
2014-Dec-22 06:33N 34°37' E 134°56'9 9.1
2014-Dec-22 05:33N 34°36' E 135°07'7 6.9
2014-Dec-22 04:33N 34°39' E 135°14'0 0.0
2014-Dec-22 03:34N 34°39' E 135°14'0 0.0
2014-Dec-22 02:33N 34°39' E 135°14'0 0.0
2014-Dec-22 01:34N 34°39' E 135°14'0 0.0
2014-Dec-22 00:34N 34°39' E 135°14'0 0.0
2014-Dec-21 23:34N 34°39' E 135°15'1 1.1
2014-Dec-21 22:29N 34°39' E 135°15'0 0.0
2014-Dec-21 21:32N 34°39' E 135°15'9 8.8
2014-Dec-21 20:33N 34°31' E 135°12'1211.8
2014-Dec-21 19:33N 34°21' E 135°03'1211.7
2014-Dec-21 18:33N 34°10' E 134°58'  
2014-Dec-19 09:31N 34°05' E 134°55'1313.0
2014-Dec-19 08:32N 34°18' E 134°59'1313.0
2014-Dec-19 07:33N 34°29' E 135°06'1312.8
2014-Dec-19 06:33N 34°39' E 135°15'0 0.5
2014-Dec-19 05:33N 34°40' E 135°14'0 0.0
2014-Dec-19 04:33N 34°40' E 135°14'2 2.4
2014-Dec-19 03:33N 34°37' E 135°14'1212.1
2014-Dec-19 02:33N 34°37' E 134°59'12 0.3
2014-Dec-17 14:31N 34°41' E 134°45'8 8.8
2014-Dec-17 13:33N 34°37' E 134°54'8 7.6
2014-Dec-17 12:33N 34°36' E 135°03'1010.0
2014-Dec-17 11:33N 34°39' E 135°15'1 0.9
2014-Dec-17 10:33N 34°39' E 135°15'0 0.1
2014-Dec-17 09:33N 34°39' E 135°15'1 0.7
2014-Dec-17 08:28N 34°39' E 135°15'0 0.0
2014-Dec-17 07:31N 34°39' E 135°15'0 0.0
2014-Dec-17 06:31N 34°39' E 135°15'0 0.0
2014-Dec-17 05:31N 34°39' E 135°15'1 1.0
2014-Dec-17 04:33N 34°40' E 135°15'0 0.1
2014-Dec-17 03:32N 34°40' E 135°14'0 0.0
2014-Dec-17 02:34N 34°40' E 135°14'0 0.2
2014-Dec-17 01:33N 34°39' E 135°15'1 0.7
2014-Dec-17 00:34N 34°39' E 135°15'8 7.6
2014-Dec-16 23:33N 34°35' E 135°07'1110.8
2014-Dec-16 22:33N 34°35' E 134°53'7 0.2
2014-Dec-15 05:13N 34°33' E 134°45'913.2
2014-Dec-15 04:33N 34°36' E 134°55'1211.6
2014-Dec-15 03:33N 34°36' E 135°09'6 5.6
2014-Dec-15 02:34N 34°39' E 135°14'0 0.0
2014-Dec-15 01:34N 34°39' E 135°14'0 0.0
2014-Dec-15 00:28N 34°39' E 135°14'2 2.5
2014-Dec-14 23:32N 34°42' E 135°13'0 0.0
2014-Dec-14 22:32N 34°42' E 135°13'0 0.0
2014-Dec-14 21:32N 34°42' E 135°13'0 0.0
2014-Dec-14 20:32N 34°42' E 135°13'0 0.0
2014-Dec-14 19:32N 34°41' E 135°13'0 0.0
2014-Dec-14 18:32N 34°42' E 135°13'0 0.0
2014-Dec-14 17:32N 34°42' E 135°13'0 0.0
2014-Dec-14 16:26N 34°42' E 135°13'0 0.0
2014-Dec-14 15:26N 34°42' E 135°13'0 0.0
2014-Dec-14 14:32N 34°42' E 135°13'0 0.0
2014-Dec-14 13:32N 34°42' E 135°13'0 0.0
2014-Dec-14 12:26N 34°42' E 135°13'0 0.0
2014-Dec-14 11:26N 34°42' E 135°13'0 0.0
2014-Dec-14 10:32N 34°42' E 135°13'0 0.0
2014-Dec-14 09:32N 34°42' E 135°13'0 0.0
2014-Dec-14 08:32N 34°42' E 135°13'0 0.0
2014-Dec-14 07:32N 34°42' E 135°13'0 0.0
2014-Dec-14 06:20N 34°42' E 135°13'0 0.0
2014-Dec-14 05:32N 34°42' E 135°13'0 0.0
2014-Dec-14 04:32N 34°42' E 135°13'0 0.0
2014-Dec-14 03:32N 34°42' E 135°13'0 0.0
2014-Dec-14 02:32N 34°42' E 135°13'0 0.0
2014-Dec-14 01:32N 34°42' E 135°13'0 0.0
2014-Dec-14 00:32N 34°42' E 135°13'0 0.0
2014-Dec-13 23:32N 34°42' E 135°13'0 0.0
2014-Dec-13 22:26N 34°42' E 135°13'0 0.0
2014-Dec-13 21:26N 34°42' E 135°13'0 0.0
2014-Dec-13 20:32N 34°42' E 135°13'0 0.0
2014-Dec-13 19:26N 34°42' E 135°13'0 0.0
2014-Dec-13 18:26N 34°42' E 135°13'0 0.0
2014-Dec-13 17:32N 34°42' E 135°13'0 0.0
2014-Dec-13 16:26N 34°42' E 135°13'0 0.0
2014-Dec-13 15:26N 34°42' E 135°13'0 0.0
2014-Dec-13 14:32N 34°42' E 135°13'0 0.0
2014-Dec-13 13:32N 34°42' E 135°13'2 2.2
2014-Dec-13 12:33N 34°40' E 135°15'1211.8
2014-Dec-13 11:33N 34°29' E 135°11'1512.2
2014-Dec-13 10:19N 34°17' E 134°60'911.8
2014-Dec-13 09:33N 34°10' E 134°52'24 1.2
2014-Dec-12 13:12N 34°34' E 134°48'710.5
2014-Dec-12 12:33N 34°36' E 134°56'9 8.9
2014-Dec-12 11:33N 34°36' E 135°06'7 7.4
2014-Dec-12 10:33N 34°40' E 135°14'0 0.0
2014-Dec-12 09:33N 34°40' E 135°14'1 0.9
2014-Dec-12 08:28N 34°39' E 135°15'0 0.0
2014-Dec-12 07:33N 34°39' E 135°15'  
Track history (hours):
 
Tides and Currents Weather Stations Pressure Air Temp Water Temp Dewpoint Dewpoint Depression Visibility Wind Speed Wind Dir Waves Ship Positions

Koyo

Last reported at 2014-Dec-22 07:18 UTC. Time now 2014-Dec-23 04:24 UTC.
Position N 34°34' E 134°47'.

Length 80 m; draft 3.6 m.

Type: Cargo ship. MMSI: 431301812.

Date/timePositionNaut miles runAvg speedWind from/ knotsBaromVisibWave heightAir tempDewpointWater temp
2014-Dec-22 07:18N 34°34' E 134°47'810.5
2014-Dec-22 06:33N 34°37' E 134°56'9 9.1
2014-Dec-22 05:33N 34°36' E 135°07'7 6.9
2014-Dec-22 04:33N 34°39' E 135°14'0 0.0
2014-Dec-22 03:34N 34°39' E 135°14'0 0.0
2014-Dec-22 02:33N 34°39' E 135°14'0 0.0
2014-Dec-22 01:34N 34°39' E 135°14'0 0.0
2014-Dec-22 00:34N 34°39' E 135°14'0 0.0
2014-Dec-21 23:34N 34°39' E 135°15'1 1.1
2014-Dec-21 22:29N 34°39' E 135°15'0 0.0
2014-Dec-21 21:32N 34°39' E 135°15'9 8.8
2014-Dec-21 20:33N 34°31' E 135°12'1211.8
2014-Dec-21 19:33N 34°21' E 135°03'1211.7
2014-Dec-21 18:33N 34°10' E 134°58'  
2014-Dec-19 09:31N 34°05' E 134°55'1313.0
2014-Dec-19 08:32N 34°18' E 134°59'1313.0
2014-Dec-19 07:33N 34°29' E 135°06'1312.8
2014-Dec-19 06:33N 34°39' E 135°15'0 0.5
2014-Dec-19 05:33N 34°40' E 135°14'0 0.0
2014-Dec-19 04:33N 34°40' E 135°14'2 2.4
2014-Dec-19 03:33N 34°37' E 135°14'1212.1
2014-Dec-19 02:33N 34°37' E 134°59'12 0.3
2014-Dec-17 14:31N 34°41' E 134°45'8 8.8
2014-Dec-17 13:33N 34°37' E 134°54'8 7.6
2014-Dec-17 12:33N 34°36' E 135°03'1010.0
2014-Dec-17 11:33N 34°39' E 135°15'1 0.9
2014-Dec-17 10:33N 34°39' E 135°15'0 0.1
2014-Dec-17 09:33N 34°39' E 135°15'1 0.7
2014-Dec-17 08:28N 34°39' E 135°15'0 0.0
2014-Dec-17 07:31N 34°39' E 135°15'0 0.0
2014-Dec-17 06:31N 34°39' E 135°15'0 0.0
2014-Dec-17 05:31N 34°39' E 135°15'1 1.0
2014-Dec-17 04:33N 34°40' E 135°15'0 0.1
2014-Dec-17 03:32N 34°40' E 135°14'0 0.0
2014-Dec-17 02:34N 34°40' E 135°14'0 0.2
2014-Dec-17 01:33N 34°39' E 135°15'1 0.7
2014-Dec-17 00:34N 34°39' E 135°15'8 7.6
2014-Dec-16 23:33N 34°35' E 135°07'1110.8
2014-Dec-16 22:33N 34°35' E 134°53'7 0.2
2014-Dec-15 05:13N 34°33' E 134°45'913.2
2014-Dec-15 04:33N 34°36' E 134°55'1211.6
2014-Dec-15 03:33N 34°36' E 135°09'6 5.6
2014-Dec-15 02:34N 34°39' E 135°14'0 0.0
2014-Dec-15 01:34N 34°39' E 135°14'0 0.0
2014-Dec-15 00:28N 34°39' E 135°14'2 2.5
2014-Dec-14 23:32N 34°42' E 135°13'0 0.0
2014-Dec-14 22:32N 34°42' E 135°13'0 0.0
2014-Dec-14 21:32N 34°42' E 135°13'0 0.0
2014-Dec-14 20:32N 34°42' E 135°13'0 0.0
2014-Dec-14 19:32N 34°41' E 135°13'0 0.0
2014-Dec-14 18:32N 34°42' E 135°13'0 0.0
2014-Dec-14 17:32N 34°42' E 135°13'0 0.0
2014-Dec-14 16:26N 34°42' E 135°13'0 0.0
2014-Dec-14 15:26N 34°42' E 135°13'0 0.0
2014-Dec-14 14:32N 34°42' E 135°13'0 0.0
2014-Dec-14 13:32N 34°42' E 135°13'0 0.0
2014-Dec-14 12:26N 34°42' E 135°13'0 0.0
2014-Dec-14 11:26N 34°42' E 135°13'0 0.0
2014-Dec-14 10:32N 34°42' E 135°13'0 0.0
2014-Dec-14 09:32N 34°42' E 135°13'0 0.0
2014-Dec-14 08:32N 34°42' E 135°13'0 0.0
2014-Dec-14 07:32N 34°42' E 135°13'0 0.0
2014-Dec-14 06:20N 34°42' E 135°13'0 0.0
2014-Dec-14 05:32N 34°42' E 135°13'0 0.0
2014-Dec-14 04:32N 34°42' E 135°13'0 0.0
2014-Dec-14 03:32N 34°42' E 135°13'0 0.0
2014-Dec-14 02:32N 34°42' E 135°13'0 0.0
2014-Dec-14 01:32N 34°42' E 135°13'0 0.0
2014-Dec-14 00:32N 34°42' E 135°13'0 0.0
2014-Dec-13 23:32N 34°42' E 135°13'0 0.0
2014-Dec-13 22:26N 34°42' E 135°13'0 0.0
2014-Dec-13 21:26N 34°42' E 135°13'0 0.0
2014-Dec-13 20:32N 34°42' E 135°13'0 0.0
2014-Dec-13 19:26N 34°42' E 135°13'0 0.0
2014-Dec-13 18:26N 34°42' E 135°13'0 0.0
2014-Dec-13 17:32N 34°42' E 135°13'0 0.0
2014-Dec-13 16:26N 34°42' E 135°13'0 0.0
2014-Dec-13 15:26N 34°42' E 135°13'0 0.0
2014-Dec-13 14:32N 34°42' E 135°13'0 0.0
2014-Dec-13 13:32N 34°42' E 135°13'2 2.2
2014-Dec-13 12:33N 34°40' E 135°15'1211.8
2014-Dec-13 11:33N 34°29' E 135°11'1512.2
2014-Dec-13 10:19N 34°17' E 134°60'911.8
2014-Dec-13 09:33N 34°10' E 134°52'24 1.2
2014-Dec-12 13:12N 34°34' E 134°48'710.5
2014-Dec-12 12:33N 34°36' E 134°56'9 8.9
2014-Dec-12 11:33N 34°36' E 135°06'7 7.4
2014-Dec-12 10:33N 34°40' E 135°14'0 0.0
2014-Dec-12 09:33N 34°40' E 135°14'1 0.9
2014-Dec-12 08:28N 34°39' E 135°15'0 0.0
2014-Dec-12 07:33N 34°39' E 135°15'  

Dump ship's entire track history